Impacts TAF Board INFO
FOR SITUATIONAL AWARENESS. NOT TO BE USED FOR FLIGHT PLANNING PURPOSES.
IDs:

KBWI - Baltimore-Washington, MD, US

Issued at 1720 UTC 19 Jan 2017
Updated at 1909 UTC 19 Jan 2017
Potential Impact None Slight Moderate High
Time1854Z 19/20Z 19/21Z 19/22Z 19/23Z 20/00Z 20/01Z 20/02Z 20/03Z 20/04Z 20/05Z 20/06Z 20/07Z 20/08Z
Type OBS PRVL PRVL PRVL PRVL PRVL PRVL PRVL PRVL PRVL PRVL PRVL PRVL PRVL
VIS 10 >6 >6 >6 >6 >6 >6 >6 >6 >6 >6 >6 >6 >6
CIG 180 200 200 200 -- -- -- -- -- -- -- 100 100 100
Cover BKN BKN BKN BKN SCT SCT SCT SCT SCT SCT SCT BKN BKN BKN
FltCat VFR VFR VFR VFR VFR VFR VFR VFR VFR VFR VFR VFR VFR VFR
WX -- -- -- -- -- -- -- -- -- -- -- -- -- --
WDir 330 290 290 290 290 290 290 290 290 290 290 VRB VRB VRB
WSpd 6 6 6 6 4 4 4 4 4 4 4 3 3 3
WGst -- -- -- -- -- -- -- -- -- -- -- -- -- --

Raw TAF
KBWI 191720Z 1918/2024 29006KT P6SM SCT025 BKN200
  FM192300 29004KT P6SM FEW025 SCT250
  FM200600 VRB03KT P6SM SCT020 BKN100
  FM201400 12004KT P6SM -RA SCT003 OVC025
  FM201900 14006KT 2SM -RA SCT003 OVC008
  FM202200 14005KT P6SM SCT003 OVC008


Raw METAR
KBWI 191854Z 33006KT 10SM FEW032 BKN180 BKN250 10/02 A3001 RMK AO2 SLP164 T01000022
KBWI 191754Z 27006KT 10SM SCT032 BKN180 BKN250 09/02 A3005 RMK AO2 SLP176 T00940022 10094 20061 58015
KBWI 191654Z 26006KT 10SM SCT030 BKN180 BKN250 09/02 A3007 RMK AO2 SLP182 T00890022

METAR Board
Radar Display
Forecast Discussion

FOR SITUATIONAL AWARENESS. NOT TO BE USED FOR FLIGHT PLANNING PURPOSES.

Page loaded:  19:09 UTC  |   11:09 AM Pacific  |   12:09 PM Mountain  |   01:09 PM Central  |   02:09 PM Eastern

 

ADVISORIES

FORECASTS

FORECASTS

OBSERVATIONS

USER TOOLS

ABOUT US